Flight Track Log - Related Links

Times and Time Zones

All times are in EDT time to prevent confusion due to time zone crossing. See the EMD24 flight status page for this flight to view local times or setup timezone preferences in your user account.

Time Position Orientation Groundspeed Altitude Reporting Facility
EDT Latitude Longitude Course Direction KTS MPH feet Rate Location/Type
Wed 12:43:39 AM 39.5500 -104.8167 67° East 146 168 7,100  Level Denver TRACON
Wed 12:44:39 AM 39.5667 -104.7667 67° East 165 190 8,300 1,100 Climbing Denver TRACON
Wed 12:45:39 AM 39.5667 -104.7000 90° East 168 193 9,300 1,048 Climbing Denver TRACON
Wed 12:46:45 AM 39.5667 -104.6333 90° East 179 206 10,500 952 Climbing Denver TRACON
Wed 12:47:45 AM 39.5667 -104.5667 90° East 190 219 11,300 700 Climbing Denver TRACON
Wed 12:48:45 AM 39.5500 -104.5000 108° East 201 231 11,900 250 Climbing Denver TRACON
Wed 12:49:45 AM 39.5333 -104.4167 105° East 227 261 11,800 41 Descending Denver TRACON
Wed 12:51:13 AM 39.5131 -104.3061 103° East 226 260 12,000 40 Climbing Denver Center
Wed 12:52:14 AM 39.4697 -104.2464 133° Southeast 226 260 11,900 -49 Descending Denver Center
Wed 12:53:15 AM 39.4200 -104.1986 143° Southeast 223 257 11,900  Level Denver Center
Wed 12:54:16 AM 39.3950 -104.1283 115° Southeast 232 267 11,900  Level Denver Center
Wed 12:55:17 AM 39.3944 -104.0417 90° East 227 261 11,900  Level Denver Center
Wed 12:56:18 AM 39.3939 -103.9592 90° East 231 266 11,900 639 Level Denver Center
Wed 12:57:19 AM 39.3917 -103.8844 92° East 211 243 13,200 1,082 Climbing Denver Center
Wed 12:58:20 AM 39.3908 -103.8186 91° East 188 216 14,100 823 Climbing Denver Center
Wed 12:59:23 AM 39.3917 -103.7483 89° East 190 219 14,900 435 Climbing Denver Center
Wed 01:00:24 AM 39.3908 -103.6739 91° East 200 230 15,000 49 Climbing Denver Center
Wed 01:01:25 AM 39.3878 -103.5903 93° East 227 261 15,000  Level Denver Center
Wed 01:02:26 AM 39.3881 -103.5050 90° East 235 270 15,000 -49 Level Denver Center
Wed 01:03:27 AM 39.3864 -103.4219 91° East 234 269 14,900  Descending Denver Center
Wed 01:04:28 AM 39.3867 -103.3375 90° East 234 269 15,000  Climbing Denver Center
Wed 01:05:29 AM 39.3864 -103.2547 90° East 232 267 14,900  Descending Denver Center
Wed 01:06:30 AM 39.3850 -103.1569 91° East 228 262 15,000 49 Climbing Denver Center
Wed 01:07:31 AM 39.3839 -103.0756 91° East 227 261 15,000 -50 Level Denver Center
Wed 01:08:31 AM 39.3825 -102.9969 91° East 219 252 14,900 -50 Descending Denver Center
Wed 01:09:32 AM 39.3783 -102.9183 94° East 219 252 14,900  Level Denver Center
Wed 01:10:33 AM 39.3767 -102.8372 91° East 224 258 14,900  Level Denver Center
Wed 01:11:34 AM 39.3750 -102.7558 91° East 227 261 14,900  Level Denver Center
Wed 01:12:35 AM 39.3747 -102.6731 90° East 230 265 14,900 -344 Level Denver Center
Wed 01:13:36 AM 39.3739 -102.5861 91° East 242 278 14,200 -738 Descending Denver Center
Wed 01:14:37 AM 39.3736 -102.4975 90° East 248 285 13,400 -787 Descending Denver Center
Wed 01:15:38 AM 39.3725 -102.4083 91° East 249 287 12,600 -843 Descending Denver Center
Wed 01:16:38 AM 39.3750 -102.3147 88° East 246 283 11,700 -893 Descending Denver Center
Wed 01:17:39 AM 39.3744 -102.2325 90° East 241 277 10,800 -934 Descending Denver Center
Wed 01:18:40 AM 39.3747 -102.1367 90° East 240 276 9,800 -934 Descending Denver Center
Wed 01:19:41 AM 39.3742 -102.0594 91° East 233 268 8,900 -689 Descending Denver Center
Wed 01:20:42 AM 39.3719 -101.9831 92° East 228 262 8,400 -694 Descending Denver Center
Wed 01:21:42 AM 39.3686 -101.9117 93° East 221 254 7,500 -900 Descending Denver Center
Wed 01:23:00 AM 39.3669 -101.7951 91° East  Level FlightAware Approximate
Wed 01:30:00 AM 39.3706 -101.6990 90° East  Level Estimated
Wed 01:31:00 AM 39.3706 -101.6990 90° East  Level Estimated

Login

Don't have an account? Register now (free) for customized features, flight alerts, and more!